Time;durP1;ratioP1;P1;durP2;ratioP2;P2;SDS_P1;SDS_P2;PMS_P1;PMS_P2;Temp;Humidity;BMP_temperature;BMP_pressure;BME280_temperature;BME280_humidity;BME280_pressure;Samples;Min_cycle;Max_cycle;Signal;HPM_P1;HPM_P2
2020/12/23 00:00:52;;;;;;;8.87;8.57;;;14.10;99.90;;;;;;4991092;28;20508;-82
2020/12/23 00:03:18;;;;;;;9.20;8.90;;;14.10;99.90;;;;;;4991292;28;20454;-82
2020/12/23 00:05:44;;;;;;;9.70;9.30;;;14.10;99.90;;;;;;4991129;28;20936;-81
2020/12/23 00:08:10;;;;;;;9.10;8.80;;;14.10;99.90;;;;;;4991047;28;20463;-83
2020/12/23 00:10:37;;;;;;;9.37;9.07;;;14.10;99.90;;;;;;4991569;28;20442;-83
2020/12/23 00:13:03;;;;;;;9.20;8.90;;;14.10;99.90;;;;;;4991036;28;20487;-82
2020/12/23 00:15:30;;;;;;;9.30;9.00;;;14.20;99.90;;;;;;4991086;28;20451;-82
2020/12/23 00:17:56;;;;;;;9.80;9.40;;;14.30;99.90;;;;;;4990977;28;21075;-82
2020/12/23 00:20:22;;;;;;;9.00;8.70;;;14.30;99.90;;;;;;4990937;28;20459;-81
2020/12/23 00:22:48;;;;;;;9.10;8.80;;;14.40;99.90;;;;;;4991397;28;20451;-81
2020/12/23 00:25:14;;;;;;;8.90;8.60;;;14.40;99.90;;;;;;4990875;28;20459;-81
2020/12/23 00:27:41;;;;;;;9.37;9.00;;;14.50;99.90;;;;;;4990703;28;20833;-82
2020/12/23 00:30:08;;;;;;;9.70;9.30;;;14.60;99.90;;;;;;4990991;28;20475;-84
2020/12/23 00:32:35;;;;;;;9.20;8.90;;;14.60;99.90;;;;;;4991226;28;20497;-83
2020/12/23 00:35:01;;;;;;;9.80;9.50;;;14.60;99.90;;;;;;4990973;28;20458;-85
2020/12/23 00:37:27;;;;;;;9.23;8.93;;;14.60;99.90;;;;;;4993445;28;20727;-85
2020/12/23 00:39:53;;;;;;;8.93;8.63;;;14.70;99.90;;;;;;4994950;28;20794;-86
2020/12/23 00:42:21;;;;;;;9.30;9.00;;;14.80;99.90;;;;;;4986550;28;20455;-82
2020/12/23 00:44:47;;;;;;;10.37;9.97;;;14.80;99.90;;;;;;4994580;28;20459;-81
2020/12/23 00:47:14;;;;;;;9.70;9.40;;;14.70;99.90;;;;;;4994365;28;20466;-85
2020/12/23 00:49:41;;;;;;;9.70;9.40;;;14.70;99.90;;;;;;4994383;28;20481;-85
2020/12/23 00:52:07;;;;;;;9.60;9.30;;;14.80;99.90;;;;;;4994302;28;20455;-82
2020/12/23 00:54:33;;;;;;;10.13;9.83;;;14.80;99.90;;;;;;4994566;28;20465;-82
2020/12/23 00:56:59;;;;;;;10.00;9.50;;;14.80;99.90;;;;;;4994160;28;20451;-81
2020/12/23 00:59:26;;;;;;;9.17;8.87;;;14.80;99.90;;;;;;4993924;28;20473;-82
2020/12/23 01:01:57;;;;;;;9.73;9.37;;;14.90;99.90;;;;;;4994309;28;20461;-84
2020/12/23 01:04:23;;;;;;;10.00;9.70;;;14.90;99.90;;;;;;4994184;28;20545;-83
2020/12/23 01:06:50;;;;;;;10.07;9.77;;;14.90;99.90;;;;;;4994509;28;20459;-83
2020/12/23 01:09:16;;;;;;;10.20;9.90;;;14.90;99.90;;;;;;4994411;28;20455;-86
2020/12/23 01:11:42;;;;;;;9.63;9.33;;;14.90;99.90;;;;;;4993772;28;20455;-85
2020/12/23 01:14:08;;;;;;;9.60;9.30;;;14.80;99.90;;;;;;4994085;28;20486;-83
2020/12/23 01:16:35;;;;;;;9.90;9.60;;;14.80;99.90;;;;;;4994123;28;20454;-83
2020/12/23 01:19:03;;;;;;;9.70;9.40;;;14.90;99.90;;;;;;4993885;28;20463;-83
2020/12/23 01:21:29;;;;;;;9.70;9.40;;;14.90;99.90;;;;;;4993556;28;20463;-83
2020/12/23 01:23:56;;;;;;;9.43;9.13;;;15.00;99.90;;;;;;4993746;28;20803;-84
2020/12/23 01:26:22;;;;;;;9.60;9.30;;;15.00;99.90;;;;;;4993618;28;20451;-83
2020/12/23 01:28:48;;;;;;;10.20;9.90;;;15.00;99.90;;;;;;4994360;28;20450;-85
2020/12/23 01:31:14;;;;;;;9.50;9.20;;;15.10;99.90;;;;;;4993599;28;20482;-87
2020/12/23 01:33:41;;;;;;;10.53;10.20;;;15.10;99.90;;;;;;4993650;28;20545;-87
2020/12/23 01:36:08;;;;;;;9.30;9.00;;;15.00;99.90;;;;;;4993597;28;20968;-85
2020/12/23 01:38:34;;;;;;;9.80;9.50;;;15.10;99.90;;;;;;4994566;28;20455;-85
2020/12/23 01:41:03;;;;;;;9.60;9.30;;;15.10;99.90;;;;;;4995655;28;20454;-86
2020/12/23 01:43:29;;;;;;;9.40;9.10;;;15.20;99.90;;;;;;4994143;28;20451;-85
2020/12/23 01:45:56;;;;;;;10.00;9.70;;;15.10;99.90;;;;;;4995544;28;20797;-84
2020/12/23 01:48:24;;;;;;;9.40;9.10;;;15.10;99.90;;;;;;5008952;28;20459;-82
2020/12/23 01:50:51;;;;;;;9.90;9.60;;;15.10;99.90;;;;;;5014258;28;20654;-82
2020/12/23 01:53:18;;;;;;;9.80;9.50;;;15.10;99.90;;;;;;5004260;28;20494;-84
2020/12/23 01:55:45;;;;;;;9.13;8.80;;;15.20;99.90;;;;;;4997967;28;20447;-86
2020/12/23 01:58:12;;;;;;;9.90;9.60;;;15.20;99.90;;;;;;4995743;28;20486;-86
2020/12/23 02:00:39;;;;;;;9.70;9.40;;;15.30;99.90;;;;;;4996236;28;20455;-86
2020/12/23 02:03:08;;;;;;;9.80;9.30;;;15.30;99.90;;;;;;4995165;28;20451;-86
2020/12/23 02:05:35;;;;;;;9.23;8.93;;;15.30;99.90;;;;;;4998440;28;20454;-87
2020/12/23 02:08:01;;;;;;;9.60;9.30;;;15.40;99.90;;;;;;4995760;28;20451;-87
2020/12/23 02:10:27;;;;;;;9.90;9.60;;;15.40;99.90;;;;;;4997861;28;20447;-86
2020/12/23 02:12:54;;;;;;;10.00;9.70;;;15.40;99.90;;;;;;4994827;28;20897;-87
2020/12/23 02:15:21;;;;;;;10.67;10.27;;;15.40;99.90;;;;;;4993608;28;20966;-87
2020/12/23 02:17:48;;;;;;;10.20;9.90;;;15.50;99.90;;;;;;4994119;28;20457;-87
2020/12/23 02:20:16;;;;;;;10.30;10.00;;;15.50;99.90;;;;;;4992905;28;20467;-83
2020/12/23 02:22:44;;;;;;;10.50;10.10;;;15.50;99.90;;;;;;4992671;28;20724;-84
2020/12/23 02:25:10;;;;;;;10.50;10.20;;;15.50;99.90;;;;;;4992761;28;20454;-84
2020/12/23 02:27:37;;;;;;;10.37;10.07;;;15.60;99.90;;;;;;4992742;28;20513;-83
2020/12/23 02:30:06;;;;;;;10.60;10.20;;;15.70;99.90;;;;;;4992847;28;20980;-83
2020/12/23 02:32:32;;;;;;;9.90;9.60;;;15.60;99.90;;;;;;4992930;28;20806;-83
2020/12/23 02:34:58;;;;;;;9.63;9.33;;;15.60;99.90;;;;;;4992526;28;20454;-83
2020/12/23 02:37:25;;;;;;;9.73;9.43;;;15.70;99.90;;;;;;4992426;28;20457;-81
2020/12/23 02:39:53;;;;;;;10.00;9.70;;;15.70;99.90;;;;;;4992545;28;20494;-82
2020/12/23 02:42:21;;;;;;;9.90;9.60;;;15.70;99.90;;;;;;4984538;28;20455;-82
2020/12/23 02:44:48;;;;;;;9.97;9.63;;;15.70;99.90;;;;;;4992555;28;20447;-85
2020/12/23 02:47:16;;;;;;;9.80;9.50;;;15.70;99.90;;;;;;4992563;28;20545;-86
2020/12/23 02:49:43;;;;;;;9.90;9.60;;;15.70;99.90;;;;;;4991968;28;20475;-86
2020/12/23 02:52:10;;;;;;;10.33;10.03;;;15.70;99.90;;;;;;4992243;28;20968;-87
2020/12/23 02:54:37;;;;;;;9.80;9.50;;;15.80;99.90;;;;;;4992210;28;20487;-87
2020/12/23 02:57:05;;;;;;;10.00;9.60;;;15.90;99.90;;;;;;4992546;28;20510;-86
2020/12/23 02:59:31;;;;;;;9.90;9.60;;;15.80;99.90;;;;;;4992001;28;20451;-83
2020/12/23 03:01:58;;;;;;;10.23;9.93;;;15.70;99.90;;;;;;4991864;28;20482;-84
2020/12/23 03:04:24;;;;;;;10.60;10.30;;;15.60;99.90;;;;;;4991840;28;20455;-85
2020/12/23 03:06:50;;;;;;;10.90;10.60;;;15.70;99.90;;;;;;4992105;28;20454;-85
2020/12/23 03:09:16;;;;;;;11.07;10.37;;;15.70;99.90;;;;;;4991835;28;20934;-86
2020/12/23 03:11:42;;;;;;;10.80;10.50;;;15.70;99.90;;;;;;4992038;28;20470;-91
2020/12/23 03:14:10;;;;;;;10.40;10.10;;;15.80;99.90;;;;;;4992344;28;20834;-91
2020/12/23 03:16:36;;;;;;;9.87;9.57;;;15.90;99.90;;;;;;4992499;28;20447;-88
2020/12/23 03:19:03;;;;;;;10.70;10.30;;;15.80;99.90;;;;;;4992186;28;20457;-89
2020/12/23 03:21:29;;;;;;;10.37;10.00;;;15.90;99.90;;;;;;4991898;28;20454;-89
2020/12/23 03:23:55;;;;;;;10.73;10.30;;;15.80;99.90;;;;;;4992012;28;20818;-89
2020/12/23 03:26:22;;;;;;;10.57;10.17;;;15.90;99.90;;;;;;4992294;28;20459;-89
2020/12/23 03:28:48;;;;;;;10.10;9.80;;;15.80;99.90;;;;;;4991936;28;20462;-89
2020/12/23 03:31:16;;;;;;;9.73;9.43;;;15.80;99.90;;;;;;4991923;28;20483;-89
2020/12/23 03:33:42;;;;;;;9.90;9.60;;;15.80;99.90;;;;;;4991726;28;21067;-89
2020/12/23 03:36:09;;;;;;;9.90;9.60;;;15.90;99.90;;;;;;4991872;28;20462;-88
2020/12/23 03:38:35;;;;;;;10.80;10.30;;;15.80;99.90;;;;;;4991858;28;20446;-88
2020/12/23 03:41:01;;;;;;;10.23;9.83;;;15.80;99.90;;;;;;4991426;28;20517;-88
2020/12/23 03:43:27;;;;;;;10.57;10.07;;;15.90;99.90;;;;;;4991709;28;20494;-89
2020/12/23 03:45:54;;;;;;;9.33;9.13;;;15.90;99.90;;;;;;4991798;28;20850;-88
2020/12/23 03:48:21;;;;;;;9.90;9.60;;;15.70;99.90;;;;;;4992117;28;20462;-88
2020/12/23 03:50:47;;;;;;;9.90;9.60;;;15.70;99.90;;;;;;4991662;28;20450;-88
2020/12/23 03:53:13;;;;;;;9.00;8.80;;;15.60;99.90;;;;;;4991625;28;20486;-88
2020/12/23 03:55:40;;;;;;;10.43;10.03;;;15.70;99.90;;;;;;4991687;28;20975;-87
2020/12/23 03:58:07;;;;;;;9.50;9.20;;;15.60;99.90;;;;;;4991997;28;20521;-88
2020/12/23 04:00:33;;;;;;;9.73;9.43;;;15.60;99.90;;;;;;4991896;28;20447;-88
2020/12/23 04:02:59;;;;;;;10.20;9.90;;;15.50;99.90;;;;;;4991467;28;20815;-88
2020/12/23 04:05:26;;;;;;;10.10;9.80;;;15.60;99.90;;;;;;4991593;28;20509;-84
2020/12/23 04:07:52;;;;;;;10.80;10.20;;;15.50;99.90;;;;;;4991320;28;20522;-87
2020/12/23 04:10:19;;;;;;;10.30;10.00;;;15.50;99.90;;;;;;4991058;28;20459;-89
2020/12/23 04:12:45;;;;;;;10.17;9.87;;;15.40;99.90;;;;;;4994597;28;20478;-87
2020/12/23 04:15:12;;;;;;;10.40;10.10;;;15.50;99.90;;;;;;4995178;28;20459;-83
2020/12/23 04:17:38;;;;;;;11.73;11.33;;;15.50;99.90;;;;;;4995247;28;20455;-80
2020/12/23 04:20:06;;;;;;;11.30;11.00;;;15.40;99.90;;;;;;4994860;28;20446;-81
2020/12/23 04:22:33;;;;;;;11.83;11.40;;;15.20;99.90;;;;;;4995311;28;20814;-80
2020/12/23 04:25:01;;;;;;;11.87;11.57;;;15.00;99.90;;;;;;4994838;28;20458;-81
2020/12/23 04:27:28;;;;;;;12.00;11.50;;;14.90;99.90;;;;;;4994858;28;20504;-82
2020/12/23 04:29:54;;;;;;;10.93;10.63;;;14.80;99.90;;;;;;4994593;28;20483;-82
2020/12/23 04:32:21;;;;;;;10.33;10.03;;;14.90;99.90;;;;;;4997951;28;21035;-81
2020/12/23 04:34:47;;;;;;;10.63;10.33;;;14.90;99.90;;;;;;5014426;28;20835;-81
2020/12/23 04:37:13;;;;;;;11.00;10.60;;;14.90;99.90;;;;;;5014277;28;20454;-82
2020/12/23 04:39:40;;;;;;;10.00;9.70;;;14.90;99.90;;;;;;5021688;28;20450;-81
2020/12/23 04:42:07;;;;;;;10.50;10.20;;;14.90;99.90;;;;;;5031520;28;20442;-82
2020/12/23 04:44:34;;;;;;;16.23;15.73;;;14.90;99.90;;;;;;5016073;28;20801;-74
2020/12/23 04:47:03;;;;;;;19.70;19.10;;;14.80;99.90;;;;;;5014122;28;20805;-76
2020/12/23 04:49:36;;;;;;;18.70;18.10;;;14.60;99.90;;;;;;5014217;28;20478;-78
2020/12/23 04:52:05;;;;;;;18.10;17.50;;;14.40;99.90;;;;;;5014780;28;20476;-78
2020/12/23 04:54:32;;;;;;;18.37;17.67;;;14.20;99.90;;;;;;5014199;28;20580;-78
2020/12/23 04:56:59;;;;;;;17.70;17.10;;;14.10;99.90;;;;;;5014034;28;20446;-78
2020/12/23 04:59:27;;;;;;;17.30;16.70;;;14.10;99.90;;;;;;5014198;28;20454;-79
2020/12/23 05:01:53;;;;;;;17.63;17.03;;;14.10;99.90;;;;;;5013678;28;20898;-77
2020/12/23 05:04:19;;;;;;;16.03;15.53;;;14.00;99.90;;;;;;5014094;28;20468;-78
2020/12/23 05:06:47;;;;;;;15.60;15.10;;;14.00;99.90;;;;;;5013623;28;20877;-79
2020/12/23 05:09:13;;;;;;;15.43;14.80;;;13.90;99.90;;;;;;5013521;28;20450;-80
2020/12/23 05:11:40;;;;;;;13.80;13.30;;;13.90;99.90;;;;;;5013678;28;20456;-79
2020/12/23 05:14:08;;;;;;;13.27;12.87;;;13.90;99.90;;;;;;5013547;28;20489;-79
2020/12/23 05:16:35;;;;;;;13.10;12.70;;;13.90;99.90;;;;;;5013505;28;20461;-80
2020/12/23 05:19:02;;;;;;;12.97;12.57;;;14.00;99.90;;;;;;5013479;28;20442;-80
2020/12/23 05:21:29;;;;;;;12.27;11.87;;;14.10;99.90;;;;;;5013211;28;20785;-80
2020/12/23 05:23:57;;;;;;;11.83;11.47;;;14.20;99.90;;;;;;5012086;28;20446;-79
2020/12/23 05:26:24;;;;;;;12.30;11.90;;;14.30;99.90;;;;;;5013516;28;20465;-79
2020/12/23 05:28:52;;;;;;;12.20;11.70;;;14.40;99.90;;;;;;5013777;28;20805;-83
2020/12/23 05:31:20;;;;;;;11.30;11.00;;;14.40;99.90;;;;;;5013177;28;20470;-83
2020/12/23 05:33:48;;;;;;;11.67;11.17;;;14.40;99.90;;;;;;5013127;28;20504;-84
2020/12/23 05:36:16;;;;;;;11.50;11.20;;;14.40;99.90;;;;;;5013054;28;20458;-84
2020/12/23 05:38:43;;;;;;;12.40;11.90;;;14.40;99.90;;;;;;5013247;28;20458;-84
2020/12/23 05:41:12;;;;;;;11.37;10.97;;;14.30;99.90;;;;;;5013195;28;20527;-83
2020/12/23 05:43:38;;;;;;;11.90;11.50;;;14.30;99.90;;;;;;5012977;28;20789;-83
2020/12/23 05:46:06;;;;;;;11.13;10.83;;;14.30;99.90;;;;;;5012840;28;20458;-84
2020/12/23 05:48:35;;;;;;;11.70;11.30;;;14.20;99.90;;;;;;5013232;28;20486;-82
2020/12/23 05:51:03;;;;;;;11.70;11.30;;;14.10;99.90;;;;;;5013032;28;20461;-86
2020/12/23 05:53:30;;;;;;;12.10;11.70;;;14.10;99.90;;;;;;5013064;28;20493;-87
2020/12/23 05:55:57;;;;;;;11.13;10.73;;;14.00;99.90;;;;;;5013115;28;20453;-87
2020/12/23 05:58:24;;;;;;;11.40;11.00;;;14.00;99.90;;;;;;5012979;28;20465;-86
2020/12/23 06:00:51;;;;;;;11.40;11.00;;;14.00;99.90;;;;;;5013123;28;20800;-85
2020/12/23 06:03:22;;;;;;;10.90;10.50;;;14.10;99.90;;;;;;5012768;28;20454;-86
2020/12/23 06:05:58;;;;;;;11.30;10.90;;;14.10;99.90;;;;;;5012609;28;20445;-85
2020/12/23 06:08:32;;;;;;;11.87;11.20;;;14.20;99.90;;;;;;5012683;28;20595;-85
2020/12/23 06:11:26;;;;;;;10.43;10.03;;;14.20;99.90;;;;;;5012823;28;20549;-87
2020/12/23 06:14:20;;;;;;;11.70;11.00;;;14.30;99.90;;;;;;5012778;28;20581;-83
2020/12/23 06:16:48;;;;;;;11.10;10.50;;;14.30;99.90;;;;;;5012396;28;20454;-83
2020/12/23 06:19:26;;;;;;;10.77;10.47;;;14.10;99.90;;;;;;5012516;28;20453;-84
2020/12/23 06:21:55;;;;;;;10.30;10.00;;;14.10;99.90;;;;;;5012362;28;20849;-84
2020/12/23 06:24:21;;;;;;;10.13;9.70;;;14.10;99.90;;;;;;5012597;28;20446;-82
2020/12/23 06:26:51;;;;;;;10.73;10.43;;;14.10;99.90;;;;;;5012135;28;20666;-84
2020/12/23 06:29:19;;;;;;;10.23;9.83;;;14.10;99.90;;;;;;5012169;28;20461;-84
2020/12/23 06:31:48;;;;;;;10.60;10.30;;;14.10;99.90;;;;;;5011872;28;20477;-87
2020/12/23 06:34:16;;;;;;;10.40;10.00;;;14.20;99.90;;;;;;5011883;28;20909;-84
2020/12/23 06:36:43;;;;;;;10.80;10.13;;;14.20;99.90;;;;;;5011946;28;20445;-83
2020/12/23 06:39:28;;;;;;;10.20;9.80;;;14.30;99.90;;;;;;5011901;28;20465;-86
2020/12/23 06:42:15;;;;;;;10.40;10.00;;;14.30;99.90;;;;;;5012097;28;20464;-88
2020/12/23 06:44:55;;;;;;;10.70;10.30;;;14.40;99.90;;;;;;5011954;28;20600;-87
2020/12/23 06:47:22;;;;;;;9.87;9.57;;;14.30;99.90;;;;;;5012411;28;20844;-89
2020/12/23 06:49:50;;;;;;;10.17;9.87;;;14.40;99.90;;;;;;5012913;28;20470;-86
2020/12/23 06:52:31;;;;;;;10.40;10.00;;;14.40;99.90;;;;;;5012030;28;20458;-87
2020/12/23 06:55:00;;;;;;;9.90;9.60;;;14.40;99.90;;;;;;5012046;28;20485;-90
2020/12/23 06:57:46;;;;;;;9.50;9.20;;;14.40;99.90;;;;;;5015074;28;20466;-90
2020/12/23 07:00:13;;;;;;;9.30;8.90;;;14.40;99.90;;;;;;5017682;28;20461;-90
2020/12/23 07:02:43;;;;;;;9.40;9.10;;;14.50;99.90;;;;;;5016254;28;20458;-91
2020/12/23 07:05:11;;;;;;;10.13;9.53;;;14.50;99.90;;;;;;5012352;28;20466;-90
2020/12/23 07:07:39;;;;;;;9.87;9.47;;;14.50;99.90;;;;;;5013123;28;21074;-89
2020/12/23 07:10:09;;;;;;;9.63;9.33;;;14.50;99.90;;;;;;5015656;28;20458;-88
2020/12/23 07:12:41;;;;;;;9.73;9.43;;;14.50;99.90;;;;;;5011836;28;20462;-86
2020/12/23 07:15:09;;;;;;;9.90;9.60;;;14.50;99.90;;;;;;5011940;28;20453;-87
2020/12/23 07:17:36;;;;;;;9.40;9.10;;;14.50;99.90;;;;;;5011949;28;20457;-87
2020/12/23 07:20:05;;;;;;;8.70;8.50;;;14.50;99.90;;;;;;5012555;28;20504;-87
2020/12/23 07:22:32;;;;;;;8.90;8.60;;;14.50;99.90;;;;;;5014319;28;20450;-86
2020/12/23 07:24:59;;;;;;;10.00;9.70;;;14.50;99.90;;;;;;5025646;28;20449;-89
2020/12/23 07:27:27;;;;;;;10.60;10.30;;;14.60;99.90;;;;;;5033742;28;20454;-87
2020/12/23 07:29:55;;;;;;;9.60;9.30;;;14.70;99.90;;;;;;5029754;28;20485;-87
2020/12/23 07:32:24;;;;;;;10.40;10.10;;;14.70;99.90;;;;;;5013002;28;20826;-86
2020/12/23 07:34:51;;;;;;;9.90;9.60;;;14.70;99.90;;;;;;5011271;28;20525;-76
2020/12/23 07:37:17;;;;;;;9.03;8.77;;;14.70;99.90;;;;;;5006910;28;20446;-84
2020/12/23 07:39:48;;;;;;;9.63;9.33;;;14.70;99.90;;;;;;5000167;28;20501;-85
2020/12/23 07:42:17;;;;;;;10.27;9.87;;;14.80;99.90;;;;;;4999048;28;20478;-83
2020/12/23 07:44:50;;;;;;;10.13;9.63;;;14.80;99.90;;;;;;4999952;28;20442;-83
2020/12/23 07:47:21;;;;;;;9.70;9.40;;;14.80;99.90;;;;;;4998311;28;20498;-84
2020/12/23 07:49:58;;;;;;;9.80;9.50;;;14.80;99.90;;;;;;4999251;28;20564;-85
2020/12/23 07:52:25;;;;;;;9.93;9.63;;;14.70;99.90;;;;;;5000066;28;20537;-85
2020/12/23 07:54:51;;;;;;;9.87;9.57;;;14.80;99.90;;;;;;5001951;28;20540;-84
2020/12/23 07:57:30;;;;;;;10.00;9.70;;;14.90;99.90;;;;;;4999068;28;20450;-85
2020/12/23 08:00:05;;;;;;;10.23;9.80;;;14.90;99.90;;;;;;5000723;28;20450;-87
2020/12/23 08:02:31;;;;;;;10.03;9.53;;;14.90;99.90;;;;;;4997965;28;20469;-87
2020/12/23 08:04:57;;;;;;;10.20;9.70;;;15.00;99.90;;;;;;4999399;28;20451;-85
2020/12/23 08:07:24;;;;;;;10.27;9.97;;;14.90;99.90;;;;;;4999822;28;20466;-81
2020/12/23 08:09:50;;;;;;;9.80;9.40;;;14.90;99.90;;;;;;5002052;28;20967;-89
2020/12/23 08:12:17;;;;;;;9.60;9.30;;;15.00;99.90;;;;;;5002077;28;20454;-85
2020/12/23 08:14:44;;;;;;;9.90;9.60;;;15.10;99.90;;;;;;4999532;28;20485;-87
2020/12/23 08:17:18;;;;;;;9.63;9.33;;;15.10;99.90;;;;;;5000824;28;20451;-86
2020/12/23 08:19:45;;;;;;;9.93;9.63;;;15.00;99.90;;;;;;4998025;28;20496;-87
2020/12/23 08:22:11;;;;;;;9.80;9.50;;;15.00;99.90;;;;;;5000657;28;20493;-83
2020/12/23 08:24:38;;;;;;;10.00;9.70;;;15.10;99.90;;;;;;4999045;28;20439;-85
2020/12/23 08:27:04;;;;;;;9.40;9.10;;;15.10;99.90;;;;;;4999891;28;20453;-85
2020/12/23 08:29:31;;;;;;;9.50;9.20;;;15.10;99.90;;;;;;4997813;28;20801;-84
2020/12/23 08:32:01;;;;;;;9.73;9.43;;;15.20;99.90;;;;;;5000644;28;20504;-82
2020/12/23 08:34:28;;;;;;;10.20;9.80;;;15.30;99.90;;;;;;4999782;28;20486;-74
2020/12/23 08:36:55;;;;;;;9.13;8.83;;;15.20;99.90;;;;;;4997985;28;20693;-75
2020/12/23 08:39:25;;;;;;;9.77;9.47;;;15.20;99.90;;;;;;4992430;28;20977;-76
2020/12/23 08:41:52;;;;;;;9.33;9.03;;;15.30;99.90;;;;;;4990491;28;20550;-75
2020/12/23 08:44:21;;;;;;;10.40;10.10;;;15.30;99.90;;;;;;4997483;28;20480;-80
2020/12/23 08:46:48;;;;;;;10.10;9.80;;;15.40;99.90;;;;;;5000048;28;20438;-75
2020/12/23 08:49:14;;;;;;;10.40;9.90;;;15.50;99.90;;;;;;4992821;28;20466;-75
2020/12/23 08:51:42;;;;;;;10.10;9.80;;;15.40;99.90;;;;;;4990798;28;20818;-75
2020/12/23 08:54:13;;;;;;;9.80;9.50;;;15.40;99.90;;;;;;4990378;28;20491;-77
2020/12/23 08:56:45;;;;;;;10.20;9.90;;;15.50;99.90;;;;;;4990121;28;20463;-78
2020/12/23 08:59:12;;;;;;;10.03;9.73;;;15.60;99.90;;;;;;4993686;28;20953;-79
2020/12/23 09:01:38;;;;;;;9.30;9.00;;;15.60;99.90;;;;;;4993759;28;20501;-79
2020/12/23 09:04:07;;;;;;;9.70;9.40;;;15.60;99.90;;;;;;4994226;28;20462;-79
2020/12/23 09:06:34;;;;;;;9.43;9.13;;;15.50;99.90;;;;;;4993914;28;20948;-79
2020/12/23 09:09:12;;;;;;;10.00;9.70;;;15.60;99.90;;;;;;4993857;28;20462;-79
2020/12/23 09:11:44;;;;;;;10.77;10.37;;;15.60;99.90;;;;;;4993794;28;20447;-79
2020/12/23 09:14:17;;;;;;;9.73;9.43;;;15.70;99.90;;;;;;4993545;28;20482;-79
2020/12/23 09:17:01;;;;;;;10.00;9.70;;;15.60;99.90;;;;;;4993403;28;20458;-79
2020/12/23 09:19:47;;;;;;;9.70;9.40;;;15.60;99.90;;;;;;4993755;28;20457;-79
2020/12/23 09:22:27;;;;;;;10.03;9.70;;;15.60;99.90;;;;;;4993493;28;20465;-78
2020/12/23 09:25:12;;;;;;;10.53;10.03;;;15.60;99.90;;;;;;4993381;28;20438;-83
2020/12/23 09:27:38;;;;;;;9.90;9.60;;;15.70;99.90;;;;;;4993152;28;20455;-80
2020/12/23 09:30:06;;;;;;;9.90;9.60;;;15.60;99.90;;;;;;4991322;28;20988;-80
2020/12/23 09:32:32;;;;;;;9.63;9.23;;;15.50;99.90;;;;;;4993428;28;20473;-81
2020/12/23 09:35:13;;;;;;;9.43;9.13;;;15.50;99.90;;;;;;4993422;28;20771;-81
2020/12/23 09:37:39;;;;;;;10.10;9.80;;;15.50;99.90;;;;;;4993031;28;20929;-80
2020/12/23 09:40:07;;;;;;;9.80;9.50;;;15.60;99.90;;;;;;4993539;28;20524;-80
2020/12/23 09:42:33;;;;;;;9.87;9.57;;;15.50;99.90;;;;;;4993768;28;20550;-82
2020/12/23 09:44:59;;;;;;;9.27;8.97;;;15.30;99.90;;;;;;4993184;28;20462;-81
2020/12/23 09:47:26;;;;;;;9.60;9.27;;;15.20;99.90;;;;;;4992904;28;20485;-81
2020/12/23 09:49:52;;;;;;;9.47;9.07;;;15.20;99.90;;;;;;4993342;28;20513;-81
2020/12/23 09:52:18;;;;;;;9.50;8.90;;;15.20;99.90;;;;;;4993500;28;20451;-81
2020/12/23 09:54:44;;;;;;;8.60;8.30;;;15.20;99.90;;;;;;4993345;28;20493;-81
2020/12/23 09:57:11;;;;;;;9.40;9.00;;;15.30;99.90;;;;;;4993809;28;20517;-76
2020/12/23 09:59:37;;;;;;;9.30;9.00;;;15.30;99.90;;;;;;4993530;28;20458;-81
2020/12/23 10:02:03;;;;;;;9.53;9.07;;;15.30;99.90;;;;;;4993826;28;20455;-83
2020/12/23 10:04:30;;;;;;;9.60;9.20;;;15.40;99.90;;;;;;4993151;28;20446;-80
2020/12/23 10:06:56;;;;;;;10.73;10.23;;;15.40;99.90;;;;;;4994914;28;20521;-81
2020/12/23 10:09:22;;;;;;;10.27;9.90;;;15.40;99.90;;;;;;5000809;28;20447;-81
2020/12/23 10:11:49;;;;;;;9.10;8.70;;;15.40;99.90;;;;;;5004408;28;20446;-82
2020/12/23 10:14:16;;;;;;;8.80;8.50;;;15.40;99.90;;;;;;5022270;28;20501;-79
2020/12/23 10:16:42;;;;;;;8.90;8.60;;;15.40;99.90;;;;;;5010140;28;20742;-80
2020/12/23 10:19:08;;;;;;;9.20;8.90;;;15.40;99.90;;;;;;5006227;28;20458;-82
2020/12/23 10:21:35;;;;;;;9.53;9.23;;;15.40;99.90;;;;;;4995142;28;20957;-81
2020/12/23 10:24:01;;;;;;;10.70;10.20;;;15.30;99.90;;;;;;4999993;28;20442;-82
2020/12/23 10:26:27;;;;;;;10.63;10.13;;;15.30;99.90;;;;;;5012437;28;20465;-81
2020/12/23 10:28:53;;;;;;;9.20;8.90;;;15.30;99.90;;;;;;5012481;28;20453;-82
2020/12/23 10:31:20;;;;;;;9.87;9.23;;;15.30;99.90;;;;;;5012236;28;20761;-82
2020/12/23 10:33:46;;;;;;;10.37;9.97;;;15.30;99.90;;;;;;5001001;28;20491;-81
2020/12/23 10:36:14;;;;;;;10.00;9.70;;;15.40;99.90;;;;;;4992973;28;20466;-80
2020/12/23 10:38:41;;;;;;;10.30;9.90;;;15.40;99.90;;;;;;4992824;28;20545;-80
2020/12/23 10:41:07;;;;;;;9.17;8.77;;;15.50;99.90;;;;;;4992668;28;20505;-80
2020/12/23 10:43:34;;;;;;;9.40;9.00;;;15.50;99.90;;;;;;4992853;28;20447;-81
2020/12/23 10:46:00;;;;;;;8.87;8.57;;;15.50;99.90;;;;;;4995056;28;20466;-82
2020/12/23 10:48:27;;;;;;;9.00;8.60;;;15.50;99.90;;;;;;5011903;28;20719;-80
2020/12/23 10:50:53;;;;;;;9.93;9.50;;;15.60;99.90;;;;;;5010332;28;20458;-81
2020/12/23 10:53:19;;;;;;;9.70;9.30;;;15.60;99.90;;;;;;5012092;28;20450;-80
2020/12/23 10:55:46;;;;;;;11.30;10.90;;;15.60;99.90;;;;;;5011607;28;20470;-80
2020/12/23 10:58:12;;;;;;;10.43;10.03;;;15.70;99.90;;;;;;5008580;28;20838;-81
2020/12/23 11:00:39;;;;;;;10.00;9.60;;;15.80;99.90;;;;;;5000268;28;20457;-80
2020/12/23 11:03:05;;;;;;;9.73;9.43;;;15.90;99.90;;;;;;5001996;28;20477;-81
2020/12/23 11:05:32;;;;;;;9.83;9.47;;;15.90;99.90;;;;;;4999086;28;21212;-80
2020/12/23 11:07:58;;;;;;;10.77;10.07;;;16.00;99.90;;;;;;5001323;28;20439;-80
2020/12/23 11:10:24;;;;;;;11.07;10.67;;;16.10;99.90;;;;;;4999549;28;20450;-81
2020/12/23 11:12:51;;;;;;;9.70;9.40;;;16.00;99.90;;;;;;5008612;28;20450;-81
2020/12/23 11:15:17;;;;;;;10.03;9.73;;;16.00;99.90;;;;;;5011736;28;20500;-81
2020/12/23 11:17:44;;;;;;;9.90;9.60;;;16.00;99.90;;;;;;5011800;28;20476;-81
2020/12/23 11:20:11;;;;;;;10.50;10.10;;;16.00;99.90;;;;;;5011771;28;20465;-80
2020/12/23 11:22:38;;;;;;;11.20;10.80;;;16.20;99.90;;;;;;5011678;28;20541;-81
2020/12/23 11:25:04;;;;;;;9.50;9.10;;;16.10;99.90;;;;;;5011726;28;20474;-82
2020/12/23 11:27:30;;;;;;;9.10;8.80;;;16.00;99.90;;;;;;5011433;28;20975;-82
2020/12/23 11:29:57;;;;;;;9.40;9.10;;;15.90;99.90;;;;;;5011456;28;20488;-81
2020/12/23 11:32:23;;;;;;;9.60;9.30;;;15.80;99.90;;;;;;5011500;28;20956;-81
2020/12/23 11:34:49;;;;;;;9.30;9.00;;;15.80;99.90;;;;;;5011603;28;20489;-81
2020/12/23 11:37:15;;;;;;;9.97;9.60;;;15.90;99.90;;;;;;5011635;28;20438;-81
2020/12/23 11:39:42;;;;;;;10.43;10.03;;;16.00;99.90;;;;;;5011363;28;20461;-81
2020/12/23 11:42:08;;;;;;;8.77;8.43;;;15.90;99.90;;;;;;5011216;28;20465;-81
2020/12/23 11:44:35;;;;;;;9.33;8.93;;;15.90;99.90;;;;;;5011306;28;20470;-81
2020/12/23 11:47:01;;;;;;;10.20;9.80;;;15.90;99.90;;;;;;5004973;28;20443;-79
2020/12/23 11:49:27;;;;;;;10.10;9.80;;;15.90;99.90;;;;;;4999059;28;20835;-79
2020/12/23 11:51:53;;;;;;;9.17;8.87;;;15.80;99.90;;;;;;5000664;28;20434;-79
2020/12/23 11:54:20;;;;;;;10.90;10.53;;;15.60;99.90;;;;;;4998154;28;20533;-81
2020/12/23 11:56:49;;;;;;;10.80;10.50;;;15.50;99.90;;;;;;5000740;28;20449;-81
2020/12/23 11:59:15;;;;;;;9.67;9.27;;;15.60;99.90;;;;;;4999502;28;20513;-79
2020/12/23 12:01:42;;;;;;;9.73;9.43;;;15.60;99.90;;;;;;4999647;28;20457;-80
2020/12/23 12:04:08;;;;;;;9.80;9.50;;;15.60;99.90;;;;;;5000890;28;20449;-80
2020/12/23 12:06:34;;;;;;;10.80;10.40;;;15.60;99.90;;;;;;4998512;28;20446;-81
2020/12/23 12:09:00;;;;;;;10.03;9.73;;;15.70;99.90;;;;;;5000781;28;20446;-81
2020/12/23 12:11:26;;;;;;;10.30;10.00;;;15.80;99.90;;;;;;5000838;28;20453;-80
2020/12/23 12:13:53;;;;;;;10.23;9.87;;;15.90;99.90;;;;;;4999109;28;21070;-79
2020/12/23 12:16:20;;;;;;;9.30;9.00;;;16.00;99.90;;;;;;5000164;28;20453;-80
2020/12/23 12:18:46;;;;;;;10.37;9.97;;;16.00;99.90;;;;;;5000847;28;20511;-79
2020/12/23 12:21:12;;;;;;;9.30;9.00;;;16.00;99.90;;;;;;4998947;28;20458;-79
2020/12/23 12:23:38;;;;;;;9.63;9.30;;;16.00;99.90;;;;;;4999802;28;20856;-81
2020/12/23 12:26:04;;;;;;;9.83;9.53;;;16.10;99.90;;;;;;5000697;28;20923;-80
2020/12/23 12:28:31;;;;;;;9.43;9.13;;;16.10;99.90;;;;;;4998732;28;20450;-80
2020/12/23 12:30:58;;;;;;;9.10;8.80;;;16.30;99.90;;;;;;4999796;28;20481;-80
2020/12/23 12:33:24;;;;;;;8.87;8.57;;;16.40;99.90;;;;;;5002524;28;20455;-81
2020/12/23 12:35:50;;;;;;;9.43;9.13;;;16.40;99.90;;;;;;5002095;28;20448;-80
2020/12/23 12:38:16;;;;;;;9.47;8.97;;;16.30;99.90;;;;;;5003207;28;20509;-80
2020/12/23 12:40:43;;;;;;;9.90;9.53;;;16.30;99.90;;;;;;5002758;28;20461;-80